M I D A S
Marine Information and Data Acquisition System
Tripno 200 of the Zeeleeuw from 2002-01-18 05:26:21 to 2002-01-18 14:59:22
Back to CruiseResearch ActivitiesStationsMapUnderway DataData graphs

EquipmentUnitsComment
TimeDGPSUTC
LatitudeDGPSDM.mWGS84
LongitudeDGPSDM.mWGS84
TemperatureSBE03/SBE38deg celciusITS90
ConductivitySBE21S/mITS90
SalinitySBE21 Practical Salinity Units
ChlorophylAChelsea fluorimeterg/lCalibrated in Aceton
Missing or incorrect values are displayed as -999
Sea surface data collected by the RV Zeeleeuw from 2002-01-18 05:26:21 to 2002-01-18 14:59:22
Time Latitude Longitude Temperature Conductivity Salinity ChlorophylA
2002-01-18 05:27:26 51°13.686 2°55.904 3.901493 2.650453 27.593061  
2002-01-18 05:28:26 51°13.683 2°55.903 3.875785 2.584033 26.806443  
2002-01-18 05:29:27 51°13.686 2°55.886 3.879864 2.565629 26.622525  
2002-01-18 05:30:27 51°13.687 2°55.802 3.912433 2.552127 26.428112  
2002-01-18 05:31:26 51°13.682 2°55.735 3.855749 2.592935 26.918077  
2002-01-18 05:32:26 51°13.728 2°55.736 3.837618 2.56893 26.678107  
2002-01-18 05:33:27 51°13.848 2°55.625 5.060678 2.505622 25.967482  
2002-01-18 05:34:26 51°13.994 2°55.518 5.434371 2.241895 22.94698  
2002-01-18 05:35:26 51°14.106 2°55.434 4.958966 2.464722 25.504042  
2002-01-18 05:36:27 51°14.215 2°55.333 4.753468 2.510423 26.03543  
2002-01-18 05:37:27 51°14.304 2°55.173 4.880414 2.504223 25.964849  
2002-01-18 05:38:26 51°14.393 2°54.993 5.000665 2.459923 25.454358  
2002-01-18 05:39:26 51°14.53 2°54.79 5.262651 2.596037 27.015234  
2002-01-18 05:40:26 51°14.692 2°54.601 4.827653 2.757206 28.848915  
2002-01-18 05:41:26 51°14.858 2°54.421 4.839704 2.827754 29.657694  
2002-01-18 05:42:26 51°15.026 2°54.249 4.8395 2.859579 30.016224  
2002-01-18 05:43:26 51°15.204 2°54.078 4.97987 2.912524 30.54269  
2002-01-18 05:44:26 51°15.391 2°53.889 5.135311 2.875391 30.161151  
2002-01-18 05:45:26 51°15.583 2°53.691 5.050697 2.850872 29.904976  
2002-01-18 05:46:26 51°15.778 2°53.492 5.133793 2.84997 29.80145  
2002-01-18 05:47:26 51°15.978 2°53.307 5.35994 2.854773 29.786482  
2002-01-18 05:48:27 51°16.183 2°53.123 5.047099 2.869985 29.923917  
2002-01-18 05:49:27 51°16.392 2°52.959 5.044312 2.881294 29.997857  
2002-01-18 05:50:27 51°16.609 2°52.822 5.509417 2.895407 30.191416  
2002-01-18 05:51:27 51°16.824 2°52.683 4.494864 2.907717 30.307178  
2002-01-18 05:52:27 51°17.037 2°52.538 4.813769 2.93264 30.598097  
2002-01-18 05:53:27 51°17.251 2°52.394 5.05394 2.960567 30.81055  
2002-01-18 05:54:27 51°17.468 2°52.268 5.635702 2.967773 30.8147  
2002-01-18 05:55:26 51°17.682 2°52.145 5.825333 2.955061 30.699923  
2002-01-18 05:56:27 51°17.907 2°52.022 5.606427 2.945852 30.626846  
2002-01-18 05:57:28 51°18.134 2°51.904 5.029259 2.957764 30.775068  
2002-01-18 05:58:27 51°18.35 2°51.783 5.12104 2.973179 30.926745  
2002-01-18 05:59:27 51°18.57 2°51.661 4.871776 2.986593 31.044596  
2002-01-18 06:00:25 51°18.784 2°51.561 5.05014 2.983389 31.011109  
2002-01-18 06:01:26 51°19.007 2°51.451 5.221378 2.953059 30.716119  
2002-01-18 06:02:26 51°19.23 2°51.342 5.098563 2.920228 30.410533  
2002-01-18 06:03:26 51°19.456 2°51.236 4.841178 2.913422 30.346072  
2002-01-18 06:04:27 51°19.687 2°51.144 5.228604 2.925833 30.444123  
2002-01-18 06:05:27 51°19.913 2°51.056 5.45416 2.952458 30.641589  
2002-01-18 06:06:27 51°20.139 2°50.966 5.347334 2.960866 30.691546  
2002-01-18 06:07:26 51°20.361 2°50.88 5.125291 2.961366 30.692397  
2002-01-18 06:08:26 51°20.587 2°50.795 5.900917 2.958163 30.663049  
2002-01-18 06:09:27 51°20.816 2°50.707 5.260328 2.958063 30.666778  
2002-01-18 06:10:27 51°21.014 2°50.54 4.392024 2.960465 30.686963  
2002-01-18 06:11:27 51°21.16 2°50.263 4.395711 2.959765 30.702529  
2002-01-18 06:12:27 51°21.301 2°49.981 4.587327 2.972678 30.821889  
2002-01-18 06:13:26 51°21.447 2°49.708 4.674607 3.015221 31.138055  
2002-01-18 06:14:27 51°21.621 2°49.465 4.686229 3.033441 31.277709  
2002-01-18 06:15:25 51°21.82 2°49.311 4.688573 3.034041 31.28291  
2002-01-18 06:16:27 51°22.042 2°49.179 4.628916 3.030237 31.255983  
2002-01-18 06:17:27 51°22.263 2°49.075 4.718533 3.024031 31.218057  
2002-01-18 06:18:26 51°22.479 2°48.968 4.716139 3.038046 31.322791  
2002-01-18 06:19:27 51°22.71 2°48.89 4.824449 3.047356 31.390995  
2002-01-18 06:20:26 51°22.94 2°48.836 5.414373 3.069081 31.546672  
2002-01-18 06:21:26 51°23.172 2°48.771 5.685885 3.070082 31.555577  
2002-01-18 06:22:26 51°23.404 2°48.702 6.073155 3.078291 31.612534  
2002-01-18 06:23:28 51°23.646 2°48.672 5.556835 3.086701 31.662588  
2002-01-18 06:24:26 51°23.872 2°48.642 5.724047 3.088603 31.676737  
2002-01-18 06:25:26 51°24.108 2°48.609 5.654325 3.088503 31.672298  
2002-01-18 06:26:26 51°24.342 2°48.575 5.689697 3.091707 31.691293  
2002-01-18 06:27:26 51°24.578 2°48.547 5.763288 3.099616 31.747078  
2002-01-18 06:28:26 51°24.815 2°48.521 5.997428 3.106124 31.79683  
2002-01-18 06:29:26 51°25.039 2°48.5 6.022331 3.114535 31.854824  
2002-01-18 06:30:27 51°25.227 2°48.482 5.886267 3.128452 31.953453  
2002-01-18 06:31:27 51°25.405 2°48.465 5.914913 3.136362 32.017149  
2002-01-18 06:32:26 51°25.58 2°48.449 5.522344 3.14247 32.061256  
2002-01-18 06:33:26 51°25.755 2°48.435 5.702035 3.146174 32.085659  
2002-01-18 06:34:27 51°25.883 2°48.44 6.087163 3.149078 32.101836  
2002-01-18 06:35:26 51°25.968 2°48.436 6.099474 3.152082 32.122449  
2002-01-18 06:36:27 51°26.034 2°48.42 6.067122 3.154485 32.137106  
2002-01-18 06:37:27 51°26.088 2°48.4 5.992985 3.155887 32.146274  
2002-01-18 06:38:27 51°26.135 2°48.378 6.085069 3.156888 32.148434  
2002-01-18 06:39:27 51°26.174 2°48.364 6.257306 3.15869 32.158793  
2002-01-18 06:40:26 51°26.207 2°48.36 5.975261 3.160092 32.170443  
2002-01-18 06:41:26 51°26.237 2°48.363 6.14685 3.160993 32.173129  
2002-01-18 06:42:27 51°26.265 2°48.373 6.076495 3.162295 32.181156  
2002-01-18 06:43:26 51°26.29 2°48.386 5.99633 3.163396 32.181948  
2002-01-18 06:44:27 51°26.313 2°48.4 6.075947 3.163396 32.181118  
2002-01-18 06:45:27 51°26.335 2°48.412 6.077492 3.163597 32.187522  
2002-01-18 06:46:27 51°26.356 2°48.423 6.1589 3.163897 32.189246  
2002-01-18 06:47:27 51°26.376 2°48.435 6.446722 3.164298 32.191268  
2002-01-18 06:48:27 51°26.396 2°48.447 6.083773 3.164698 32.19246  
2002-01-18 06:49:27 51°26.421 2°48.464 6.246567 3.164698 32.19163  
2002-01-18 06:50:27 51°26.448 2°48.495 6.00726 3.164698 32.187482  
2002-01-18 06:51:27 51°26.465 2°48.542 5.967072 3.165599 32.195141  
2002-01-18 06:52:27 51°26.464 2°48.588 5.967921 3.165299 32.190929  
2002-01-18 06:53:27 51°26.45 2°48.618 6.004216 3.1658 32.194078  
2002-01-18 06:54:27 51°26.432 2°48.625 6.411473 3.165099 32.191163  
2002-01-18 06:55:27 51°26.413 2°48.625 6.326864 3.164798 32.189439  
2002-01-18 06:56:27 51°26.387 2°48.63 6.164426 3.164197 32.186821  
2002-01-18 06:57:27 51°26.359 2°48.629 6.201704 3.164097 32.184035  
2002-01-18 06:58:27 51°26.331 2°48.62 5.950839 3.163296 32.177502  
2002-01-18 06:59:27 51°26.302 2°48.611 6.149987 3.162495 32.173457  
2002-01-18 07:00:27 51°26.272 2°48.601 6.106351 3.161494 32.168814  
2002-01-18 07:01:27 51°26.244 2°48.587 5.650109 3.160793 32.164235  
2002-01-18 07:02:27 51°26.218 2°48.574 6.341709 3.160393 32.162212  
2002-01-18 07:03:27 51°26.193 2°48.564 5.765443 3.159892 32.159889  
2002-01-18 07:04:27 51°26.166 2°48.552 5.681219 3.158891 32.153583  
2002-01-18 07:05:27 51°26.141 2°48.54 6.290156 3.15859 32.154346  
2002-01-18 07:06:27 51°26.115 2°48.526 5.961278 3.157589 32.146379  
2002-01-18 07:07:27 51°26.091 2°48.512 5.998626 3.157489 32.145251  
2002-01-18 07:08:27 51°26.066 2°48.497 6.158203 3.156788 32.140669  
2002-01-18 07:09:27 51°26.041 2°48.483 6.233489 3.155987 32.135787  
2002-01-18 07:10:26 51°26.016 2°48.47 6.124287 3.155486 32.13429  
2002-01-18 07:11:26 51°25.993 2°48.454 6.060091 3.154385 32.12685  
2002-01-18 07:12:26 51°25.976 2°48.442 6.058845 3.153484 32.120836  
2002-01-18 07:13:26 51°25.965 2°48.432 6.01779 3.153183 32.119938  
2002-01-18 07:14:27 51°25.956 2°48.425 6.266352 3.153283 32.120237  
2002-01-18 07:15:27 51°25.95 2°48.422 5.977708 3.152883 32.11655  
2002-01-18 07:16:27 51°25.945 2°48.42 6.263867 3.152783 32.114592  
2002-01-18 07:17:27 51°25.941 2°48.42 5.978257 3.152582 32.112334  
2002-01-18 07:18:27 51°25.938 2°48.42 6.264861 3.152582 32.111505  
2002-01-18 07:19:27 51°25.934 2°48.421 6.347716 3.152482 32.110376  
2002-01-18 07:20:27 51°25.931 2°48.421 6.220409 3.152683 32.114292  
2002-01-18 07:21:26 51°25.927 2°48.422 6.541714 3.152182 32.110305  
2002-01-18 07:22:27 51°25.923 2°48.42 6.054705 3.151882 32.110235  
2002-01-18 07:23:27 51°25.92 2°48.417 6.132606 3.151581 32.108506  
2002-01-18 07:24:27 51°25.918 2°48.416 6.136789 3.151681 32.109635  
2002-01-18 07:25:27 51°25.915 2°48.412 6.459558 3.151481 32.108206  
2002-01-18 07:26:27 51°25.913 2°48.41 6.338929 3.151281 32.105119  
2002-01-18 07:27:27 51°25.91 2°48.407 6.376005 3.151581 32.108506  
2002-01-18 07:28:27 51°25.907 2°48.403 5.927857 3.15098 32.101731  
2002-01-18 07:29:26 51°25.905 2°48.399 6.050167 3.151081 32.10286  
2002-01-18 07:30:27 51°25.902 2°48.395 6.050167 3.15088 32.10226  
2002-01-18 07:31:27 51°25.9 2°48.393 5.966522 3.15088 32.101431  
2002-01-18 07:32:27 51°25.898 2°48.391 6.290753 3.15048 32.10106  
2002-01-18 07:33:27 51°25.896 2°48.389 6.129019 3.15028 32.098801  
2002-01-18 07:34:27 51°25.893 2°48.385 6.046576 3.150079 32.096543  
2002-01-18 07:35:27 51°25.889 2°48.381 6.048022 3.150179 32.096843  
2002-01-18 07:36:27 51°25.873 2°48.378 6.00736 3.150079 32.095714  
2002-01-18 07:37:27 51°25.854 2°48.4 6.129069 3.149779 32.094813  
2002-01-18 07:38:27 51°25.851 2°48.442 6.086415 3.150079 32.095714  
2002-01-18 07:39:27 51°25.873 2°48.477 6.123589 3.149478 32.093083  
2002-01-18 07:40:27 51°25.911 2°48.499 5.794393 3.148577 32.087064  
2002-01-18 07:41:27 51°25.952 2°48.512 5.913463 3.147876 32.079157  
2002-01-18 07:42:27 51°25.985 2°48.516 5.833391 3.147376 32.074339  
2002-01-18 07:43:27 51°26.012 2°48.516 6.03645 3.146975 32.072308  
2002-01-18 07:44:26 51°26.035 2°48.513 6.241744 3.146675 32.068919  
2002-01-18 07:45:27 51°26.056 2°48.509 6.115668 3.146775 32.068391  
2002-01-18 07:46:27 51°26.073 2°48.503 5.871664 3.146975 32.072308  
2002-01-18 07:47:27 51°26.086 2°48.497 6.035802 3.147075 32.074266  
2002-01-18 07:48:27 51°26.105 2°48.492 5.995531 3.147175 32.072909  
2002-01-18 07:49:27 51°26.13 2°48.588 6.332574 3.147376 32.072682  
2002-01-18 07:50:27 51°26.057 2°48.594 6.173785 3.148577 32.076289  
2002-01-18 07:51:27 51°26.001 2°48.465 6.070812 3.147776 32.068913  
2002-01-18 07:52:28 51°25.984 2°48.426 6.152576 3.145774 32.060411  
2002-01-18 07:53:26 51°25.982 2°48.43 6.07131 3.145874 32.063197  
2002-01-18 07:54:27 51°25.981 2°48.409 5.99004 3.146074 32.063799  
2002-01-18 07:55:28 51°25.983 2°48.41 6.076545 3.145974 32.061013  
2002-01-18 07:56:28 51°26.025 2°48.391 6.118707 3.146474 32.06086  
2002-01-18 07:57:27 51°26.036 2°48.398 6.159895 3.146374 32.062216  
2002-01-18 07:58:27 51°26.049 2°48.449 6.076844 3.146975 32.06485  
2002-01-18 07:59:27 51°26.052 2°48.474 5.909015 3.146475 32.064174  
2002-01-18 08:00:27 51°26.052 2°48.492 5.912064 3.146174 32.063272  
2002-01-18 08:01:27 51°26.051 2°48.508 5.864112 3.145573 32.05898  
2002-01-18 08:02:27 51°26.052 2°48.523 6.274255 3.144872 32.054387  
2002-01-18 08:03:28 51°26.054 2°48.537 6.280119 3.145373 32.055893  
2002-01-18 08:04:27 51°26.057 2°48.547 6.167861 3.145673 32.055139  
2002-01-18 08:05:27 51°26.061 2°48.557 6.162285 3.145774 32.049643  
2002-01-18 08:06:27 51°26.065 2°48.564 6.446078 3.145473 32.050396  
2002-01-18 08:07:27 51°26.071 2°48.569 6.077791 3.144973 32.04889  
2002-01-18 08:08:27 51°26.078 2°48.57 6.032509 3.144772 32.046631  
2002-01-18 08:09:28 51°26.085 2°48.568 6.319315 3.144372 32.04377  
2002-01-18 08:10:27 51°26.091 2°48.565 6.23523 3.143871 32.040607  
2002-01-18 08:11:27 51°26.096 2°48.558 6.400066 3.143871 32.039779  
2002-01-18 08:12:27 51°26.102 2°48.551 5.95024 3.143671 32.03752  
2002-01-18 08:13:27 51°26.106 2°48.543 6.199713 3.143671 32.036692  
2002-01-18 08:14:27 51°26.11 2°48.535 6.084372 3.144071 32.034587  
2002-01-18 08:15:27 51°26.114 2°48.525 6.008508 3.144472 32.034965  
2002-01-18 08:16:27 51°26.118 2°48.515 6.255615 3.144772 32.034215  
2002-01-18 08:17:27 51°26.121 2°48.506 6.097131 3.145173 32.032938  
2002-01-18 08:18:27 51°26.124 2°48.495 6.13913 3.145473 32.033843  
2002-01-18 08:19:27 51°26.127 2°48.485 6.101068 3.145673 32.032791  
2002-01-18 08:20:27 51°26.131 2°48.474 5.978157 3.145873 32.035049  
2002-01-18 08:21:27 51°26.134 2°48.464 6.261531 3.145673 32.035273  
2002-01-18 08:22:28 51°26.138 2°48.451 6.305508 3.145773 32.033093  
2002-01-18 08:23:27 51°26.142 2°48.439 6.434628 3.145673 32.031964  
2002-01-18 08:24:27 51°26.145 2°48.426 6.393965 3.145974 32.032042  
2002-01-18 08:25:28 51°26.148 2°48.413 6.474373 3.145974 32.032042  
2002-01-18 08:26:28 51°26.151 2°48.399 6.065576 3.146074 32.031516  
2002-01-18 08:27:27 51°26.181 2°48.4 5.211675 3.145673 32.031964  
2002-01-18 08:28:26 51°26.195 2°48.502 5.204649 3.143871 32.028191  
2002-01-18 08:29:26 51°26.221 2°48.746 5.240275 3.142169 32.018924  
2002-01-18 08:30:25 51°26.251 2°48.995 5.189938 3.140166 31.998821  
2002-01-18 08:31:27 51°26.281 2°49.234 5.175022 3.137062 31.972906  
2002-01-18 08:32:27 51°26.308 2°49.462 5.151957 3.133558 31.945768  
2002-01-18 08:33:26 51°26.337 2°49.686 5.123013 3.12755 31.9011  
2002-01-18 08:34:27 51°26.366 2°49.918 5.131921 3.120642 31.846213  
2002-01-18 08:35:27 51°26.393 2°50.145 5.174971 3.120742 31.836623  
2002-01-18 08:36:27 51°26.42 2°50.371 5.120027 3.118839 31.820918  
2002-01-18 08:37:25 51°26.447 2°50.59 5.106714 3.117337 31.810554  
2002-01-18 08:38:27 51°26.479 2°50.825 4.944553 3.114234 31.792807  
2002-01-18 08:39:27 51°26.51 2°51.054 4.87076 3.07789 31.545377  
2002-01-18 08:40:26 51°26.542 2°51.279 4.85348 3.064274 31.446009  
2002-01-18 08:41:28 51°26.574 2°51.514 4.83889 3.063674 31.444119  
2002-01-18 08:42:27 51°26.604 2°51.736 4.844635 3.055564 31.371771  
2002-01-18 08:43:27 51°26.633 2°51.962 4.844838 3.052461 31.337364  
2002-01-18 08:44:26 51°26.664 2°52.185 4.745627 3.050458 31.313821  
2002-01-18 08:45:25 51°26.694 2°52.41 4.746034 3.031338 31.185755  
2002-01-18 08:46:27 51°26.724 2°52.647 4.765431 3.030036 31.169324  
2002-01-18 08:47:27 51°26.756 2°52.876 4.702994 3.028334 31.153242  
2002-01-18 08:48:28 51°26.787 2°53.11 4.688165 3.017222 31.063577  
2002-01-18 08:49:27 51°26.816 2°53.34 4.684241 3.012417 31.019499  
2002-01-18 08:50:27 51°26.845 2°53.57 4.672517 3.010115 30.999813  
2002-01-18 08:51:27 51°26.871 2°53.798 4.663698 3.004108 30.942038  
2002-01-18 08:52:27 51°26.898 2°54.022 4.663545 3.002006 30.927053  
2002-01-18 08:53:27 51°26.922 2°54.246 4.657477 3.001305 30.917452  
2002-01-18 08:54:27 51°26.946 2°54.468 4.655539 3.001205 30.919562  
2002-01-18 08:55:27 51°26.97 2°54.694 4.689287 3.000404 30.912884  
2002-01-18 08:56:28 51°26.995 2°54.927 4.633609 2.998502 30.900168  
2002-01-18 08:57:27 51°27.02 2°55.152 4.627437 2.995099 30.876844  
2002-01-18 08:58:27 51°27.049 2°55.382 4.617591 2.994098 30.868692  
2002-01-18 08:59:27 51°27.075 2°55.61 4.604374 2.992296 30.855475  
2002-01-18 09:00:28 51°27.102 2°55.831 4.582886 2.989593 30.835237  
2002-01-18 09:01:27 51°27.128 2°56.043 4.561237 2.985089 30.807434  
2002-01-18 09:02:28 51°27.155 2°56.262 4.566497 2.981285 30.777858  
2002-01-18 09:03:28 51°27.181 2°56.477 4.552861 2.979984 30.761398  
2002-01-18 09:04:28 51°27.209 2°56.689 4.479884 2.977181 30.744838  
2002-01-18 09:05:28 51°27.236 2°56.899 4.472469 2.962266 30.637799  
2002-01-18 09:06:27 51°27.263 2°57.105 4.427142 2.957462 30.599911  
2002-01-18 09:07:27 51°27.29 2°57.314 4.386238 2.94505 30.49524  
2002-01-18 09:08:27 51°27.316 2°57.523 4.366314 2.936742 30.431706  
2002-01-18 09:09:28 51°27.343 2°57.737 4.37497 2.930737 30.384761  
2002-01-18 09:10:27 51°27.372 2°57.942 4.293426 2.926133 30.349785  
2002-01-18 09:11:27 51°27.397 2°58.151 4.307067 2.914022 30.247302  
2002-01-18 09:12:27 51°27.422 2°58.36 4.299375 2.914522 30.246605  
2002-01-18 09:13:27 51°27.447 2°58.568 4.294605 2.914022 30.247302  
2002-01-18 09:14:27 51°27.471 2°58.776 4.283732 2.912921 30.24112  
2002-01-18 09:15:27 51°27.495 2°58.983 4.276448 2.91152 30.234709  
2002-01-18 09:16:27 51°27.518 2°59.191 4.258438 2.909618 30.224168  
2002-01-18 09:17:28 51°27.542 2°59.403 4.228052 2.907016 30.208803  
2002-01-18 09:18:28 51°27.564 2°59.613 4.303785 2.903713 30.188605  
2002-01-18 09:19:27 51°27.587 2°59.817 4.268085 2.915023 30.294189  
2002-01-18 09:20:27 51°27.609 3°0.023 4.287015 2.92223 30.367161  
2002-01-18 09:21:28 51°27.637 3°0.228 4.255821 2.927835 30.420939  
2002-01-18 09:22:27 51°27.663 3°0.428 4.247969 2.924732 30.41285  
2002-01-18 09:23:27 51°27.691 3°0.63 4.253717 2.923431 30.399534  
2002-01-18 09:24:28 51°27.719 3°0.836 4.244735 2.92233 30.389325  
2002-01-18 09:25:27 51°27.745 3°1.035 4.25228 2.920929 30.378094  
2002-01-18 09:26:27 51°27.772 3°1.236 4.257412 2.921029 30.371157  
2002-01-18 09:27:27 51°27.806 3°1.429 4.255513 2.920228 30.358737  
2002-01-18 09:28:27 51°27.839 3°1.58 4.251972 2.920228 30.358737  
2002-01-18 09:29:26 51°27.871 3°1.711 4.249663 2.919627 30.35427  
2002-01-18 09:30:28 51°27.893 3°1.85 4.251254 2.919327 30.354055  
2002-01-18 09:31:28 51°27.925 3°1.978 4.249098 2.918927 30.349461  
2002-01-18 09:32:28 51°27.956 3°2.108 4.246327 2.918226 30.343844  
2002-01-18 09:33:28 51°27.979 3°2.242 4.246891 2.917726 30.338909  
2002-01-18 09:34:27 51°28.008 3°2.37 4.246019 2.916625 30.323046  
2002-01-18 09:35:28 51°28.032 3°2.505 4.244735 2.915524 30.31122  
2002-01-18 09:36:28 51°28.037 3°2.647 4.243298 2.914823 30.306408  
2002-01-18 09:37:28 51°28.065 3°2.777 4.226614 2.914322 30.301472  
2002-01-18 09:38:28 51°28.094 3°2.913 4.207564 2.91092 30.283388  
2002-01-18 09:39:28 51°28.112 3°3.06 4.202941 2.907817 30.260667  
2002-01-18 09:40:28 51°28.137 3°3.204 4.199962 2.905515 30.237456  
2002-01-18 09:41:28 51°28.168 3°3.316 4.195853 2.904414 30.224813  
2002-01-18 09:42:28 51°28.188 3°3.376 4.187685 2.903313 30.217004  
2002-01-18 09:43:27 51°28.194 3°3.423 4.160554 2.897708 30.163098  
2002-01-18 09:44:26 51°28.193 3°3.468 4.15747 2.886298 30.051326  
2002-01-18 09:45:27 51°28.187 3°3.508 4.155619 2.885097 30.039936  
2002-01-18 09:46:28 51°28.179 3°3.546 4.155105 2.884297 30.033144  
2002-01-18 09:47:26 51°28.169 3°3.582 4.155311 2.883196 30.018896  
2002-01-18 09:48:28 51°28.157 3°3.612 4.152484 2.882795 30.020708  
2002-01-18 09:49:28 51°28.145 3°3.632 4.15346 2.882395 30.017712  
2002-01-18 09:50:28 51°28.134 3°3.646 4.145441 2.882795 30.019906  
2002-01-18 09:51:27 51°28.126 3°3.657 4.143796 2.879893 29.994574  
2002-01-18 09:52:28 51°28.119 3°3.666 4.142511 2.879192 29.985725  
2002-01-18 09:53:27 51°28.111 3°3.673 4.137369 2.877591 29.97053  
2002-01-18 09:54:27 51°28.105 3°3.679 4.134233 2.87599 29.956133  
2002-01-18 09:55:28 51°28.098 3°3.683 4.142357 2.874889 29.944285  
2002-01-18 09:56:26 51°28.092 3°3.687 4.14395 2.874388 29.933739  
2002-01-18 09:57:28 51°28.086 3°3.691 4.150839 2.874488 29.925299  
2002-01-18 09:58:27 51°28.081 3°3.693 4.165282 2.874789 29.923155  
2002-01-18 09:59:28 51°28.077 3°3.695 4.157932 2.875389 29.92366  
2002-01-18 10:00:26 51°28.074 3°3.696 4.141894 2.875189 29.923758  
2002-01-18 10:01:28 51°28.072 3°3.695 4.133873 2.873688 29.921696  
2002-01-18 10:02:28 51°28.07 3°3.694 4.130839 2.872787 29.920939  
2002-01-18 10:03:28 51°28.068 3°3.691 4.129297 2.872187 29.916438  
2002-01-18 10:04:28 51°28.067 3°3.687 4.126983 2.872187 29.916438  
2002-01-18 10:05:27 51°28.065 3°3.681 4.124154 2.871486 29.912384  
2002-01-18 10:06:28 51°28.063 3°3.674 4.125748 2.870886 29.904686  
2002-01-18 10:07:28 51°28.062 3°3.664 4.132639 2.871786 29.913437  
2002-01-18 10:08:28 51°28.061 3°3.652 4.142974 2.872987 29.92164  
2002-01-18 10:09:28 51°28.06 3°3.639 4.148012 2.874789 29.934341  
2002-01-18 10:10:28 51°28.058 3°3.623 4.189843 2.875689 29.93989  
2002-01-18 10:11:28 51°28.056 3°3.607 4.146161 2.875589 29.93954  
2002-01-18 10:12:28 51°28.053 3°3.588 4.147806 2.875089 29.934592  
2002-01-18 10:13:27 51°28.048 3°3.57 4.192822 2.875589 29.940339  
2002-01-18 10:14:28 51°28.042 3°3.551 4.15932 2.87619 29.944837  
2002-01-18 10:15:28 51°28.035 3°3.531 4.15603 2.87599 29.936944  
2002-01-18 10:16:28 51°28.028 3°3.513 4.20818 2.875789 29.936244  
2002-01-18 10:17:28 51°28.02 3°3.494 4.209977 2.87659 29.932655  
2002-01-18 10:18:28 51°28.011 3°3.476 4.1715 2.87659 29.935849  
2002-01-18 10:19:28 51°28.003 3°3.459 4.159217 2.87629 29.930806  
2002-01-18 10:20:28 51°27.994 3°3.441 4.151559 2.87599 29.939342  
2002-01-18 10:21:28 51°27.985 3°3.423 4.151867 2.87599 29.941739  
2002-01-18 10:22:27 51°27.976 3°3.406 4.151661 2.877191 29.957131  
2002-01-18 10:23:27 51°27.968 3°3.391 4.152587 2.877091 29.955182  
2002-01-18 10:24:28 51°27.958 3°3.376 4.149862 2.877191 29.956331  
2002-01-18 10:25:28 51°27.949 3°3.363 4.151816 2.878292 29.969775  
2002-01-18 10:26:28 51°27.94 3°3.348 4.154694 2.877991 29.963127  
2002-01-18 10:27:28 51°27.931 3°3.334 4.151816 2.877391 29.955431  
2002-01-18 10:28:27 51°27.922 3°3.319 4.154026 2.878091 29.964276  
2002-01-18 10:29:27 51°27.913 3°3.305 4.157315 2.877691 29.958879  
2002-01-18 10:30:28 51°27.904 3°3.29 4.161119 2.877591 29.953732  
2002-01-18 10:31:28 51°27.895 3°3.276 4.201041 2.87709 29.945589  
2002-01-18 10:32:28 51°27.886 3°3.261 4.159628 2.877891 29.95638  
2002-01-18 10:33:28 51°27.878 3°3.247 4.162301 2.878191 29.959028  
2002-01-18 10:34:28 51°27.869 3°3.233 4.164768 2.878291 29.957779  
2002-01-18 10:35:28 51°27.859 3°3.218 4.165333 2.878091 29.953083  
2002-01-18 10:36:28 51°27.849 3°3.203 4.167594 2.878492 29.960077  
2002-01-18 10:37:28 51°27.84 3°3.188 4.165385 2.878992 29.957029  
2002-01-18 10:38:28 51°27.831 3°3.173 4.162764 2.878792 29.960326  
2002-01-18 10:39:28 51°27.821 3°3.158 4.165179 2.878492 29.960877  
2002-01-18 10:40:28 51°27.812 3°3.141 4.159526 2.878492 29.959278  
2002-01-18 10:41:28 51°27.803 3°3.124 4.161479 2.878692 29.965574  
2002-01-18 10:42:28 51°27.794 3°3.108 4.174994 2.878892 29.960676  
2002-01-18 10:43:28 51°27.785 3°3.091 4.213264 2.880293 29.967167  
2002-01-18 10:44:27 51°27.776 3°3.072 4.221583 2.880193 29.969216  
2002-01-18 10:45:27 51°27.767 3°3.051 4.189329 2.880893 29.966067  
2002-01-18 10:46:27 51°27.758 3°3.03 4.172374 2.880994 29.969612  
2002-01-18 10:47:28 51°27.748 3°3.006 4.172785 2.880393 29.972313  
2002-01-18 10:48:28 51°27.739 3°2.983 4.174378 2.880794 29.977708  
2002-01-18 10:49:26 51°27.729 3°2.959 4.188404 2.880894 29.979656  
2002-01-18 10:50:28 51°27.718 3°2.934 4.190459 2.882094 29.977449  
2002-01-18 10:51:28 51°27.707 3°2.909 4.195236 2.882094 29.979048  
2002-01-18 10:52:28 51°27.696 3°2.883 4.187377 2.882395 29.978497  
2002-01-18 10:53:27 51°27.685 3°2.858 4.191641 2.882295 29.981345  
2002-01-18 10:54:28 51°27.674 3°2.832 4.204122 2.882995 29.985386  
2002-01-18 10:55:28 51°27.662 3°2.805 4.204687 2.883896 29.986128  
2002-01-18 10:56:28 51°27.651 3°2.778 4.19575 2.883796 29.987378  
2002-01-18 10:57:28 51°27.64 3°2.75 4.18861 2.883496 29.986332  
2002-01-18 10:58:28 51°27.629 3°2.723 4.202068 2.882895 29.989035  
2002-01-18 10:59:28 51°27.617 3°2.695 4.177204 2.883295 29.988032  
2002-01-18 11:00:28 51°27.606 3°2.667 4.176176 2.882195 29.989792  
2002-01-18 11:01:28 51°27.594 3°2.639 4.192719 2.882095 29.989443  
2002-01-18 11:02:28 51°27.581 3°2.61 4.182547 2.882995 29.989384  
2002-01-18 11:03:28 51°27.568 3°2.579 4.18229 2.882595 29.987989  
2002-01-18 11:04:28 51°27.556 3°2.548 4.180389 2.882195 29.985793  
2002-01-18 11:05:28 51°27.541 3°2.517 4.182445 2.882695 29.993136  
2002-01-18 11:06:28 51°27.529 3°2.484 4.189483 2.882795 29.991885  
2002-01-18 11:07:28 51°27.535 3°2.421 4.18301 2.883195 29.99648  
2002-01-18 11:08:28 51°27.644 3°2.415 4.187274 2.883496 29.999926  
2002-01-18 11:09:28 51°27.762 3°2.648 4.185065 2.885598 30.024049  
2002-01-18 11:10:28 51°27.868 3°2.922 4.182496 2.886698 30.035886  
2002-01-18 11:11:28 51°27.967 3°3.21 4.206125 2.889301 30.065757  
2002-01-18 11:12:28 51°28.028 3°3.522 4.214342 2.897408 30.137949  
2002-01-18 11:13:28 51°28.101 3°3.826 4.233032 2.901011 30.172068  
2002-01-18 11:14:28 51°28.168 3°4.137 4.225947 2.90031 30.151176  
2002-01-18 11:15:28 51°28.238 3°4.447 4.223534 2.898108 30.132339  
2002-01-18 11:16:28 51°28.306 3°4.755 4.212494 2.898408 30.135783  
2002-01-18 11:17:28 51°28.371 3°5.07 4.211261 2.897207 30.130834  
2002-01-18 11:18:28 51°28.434 3°5.384 4.21388 2.897708 30.133365  
2002-01-18 11:19:27 51°28.496 3°5.696 4.214445 2.897808 30.136119  
2002-01-18 11:20:27 51°28.56 3°6.013 4.217629 2.899009 30.149097  
2002-01-18 11:21:28 51°28.624 3°6.34 4.233237 2.90001 30.158975  
2002-01-18 11:22:28 51°28.685 3°6.661 4.269932 2.904213 30.188719  
2002-01-18 11:23:28 51°28.748 3°6.98 4.327061 2.913521 30.261674  
2002-01-18 11:24:28 51°28.811 3°7.3 4.307579 2.918426 30.303392  
2002-01-18 11:25:28 51°28.875 3°7.623 4.421819 2.926333 30.357717  
2002-01-18 11:26:28 51°28.941 3°7.942 4.463826 2.941947 30.45977  
2002-01-18 11:27:28 51°29 3°8.264 4.41578 2.941446 30.449213  
2002-01-18 11:28:28 51°29.052 3°8.59 4.401702 2.937743 30.416555  
2002-01-18 11:29:28 51°29.104 3°8.916 4.395609 2.933038 30.374856  
2002-01-18 11:30:27 51°29.155 3°9.235 4.386648 2.930736 30.351757  
2002-01-18 11:31:28 51°29.206 3°9.569 4.381475 2.927934 30.326148  
2002-01-18 11:32:28 51°29.257 3°9.895 4.371231 2.925231 30.302481  
2002-01-18 11:33:28 51°29.309 3°10.224 4.355862 2.920027 30.253404  
2002-01-18 11:34:28 51°29.361 3°10.553 4.33516 2.91312 30.188054  
2002-01-18 11:35:28 51°29.413 3°10.881 4.308144 2.905013 30.115331  
2002-01-18 11:36:28 51°29.465 3°11.207 4.261671 2.894204 30.017213  
2002-01-18 11:37:27 51°29.504 3°11.533 4.224817 2.87789 29.875859  
2002-01-18 11:38:27 51°29.507 3°11.875 4.252229 2.866181 29.76716  
2002-01-18 11:39:28 51°29.518 3°12.221 4.196932 2.861077 29.719786  
2002-01-18 11:40:28 51°29.54 3°12.56 4.195956 2.857174 29.685361  
2002-01-18 11:41:28 51°29.574 3°12.897 4.203198 2.856073 29.673539  
2002-01-18 11:42:28 51°29.604 3°13.239 4.188301 2.858175 29.693662  
2002-01-18 11:43:28 51°29.635 3°13.58 4.201092 2.85307 29.639144  
2002-01-18 11:44:28 51°29.664 3°13.926 4.216191 2.85297 29.62852  
2002-01-18 11:45:28 51°29.695 3°14.273 4.230259 2.856573 29.660298  
2002-01-18 11:46:28 51°29.726 3°14.621 4.269573 2.860476 29.692338  
2002-01-18 11:47:28 51°29.771 3°14.96 4.344846 2.873286 29.79223  
2002-01-18 11:48:27 51°29.82 3°15.29 4.378709 2.893002 29.962874  
2002-01-18 11:49:28 51°29.897 3°15.616 4.425914 2.909617 30.115246  
2002-01-18 11:50:28 51°29.982 3°15.929 4.376353 2.905613 30.065541  
2002-01-18 11:51:28 51°30.07 3°16.24 4.438144 2.90161 30.026994  
2002-01-18 11:52:28 51°30.168 3°16.543 4.47477 2.915021 30.128294  
2002-01-18 11:53:28 51°30.264 3°16.848 4.507541 2.932737 30.289594  
2002-01-18 11:54:28 51°30.371 3°17.148 4.515463 2.949954 30.470656  
2002-01-18 11:55:28 51°30.474 3°17.453 4.543207 2.95606 30.529016  
2002-01-18 11:56:28 51°30.582 3°17.754 4.629274 2.968172 30.631607  
2002-01-18 11:57:28 51°30.688 3°18.059 4.678124 2.993297 30.838481  
2002-01-18 11:58:28 51°30.792 3°18.363 4.683273 3.001806 30.903662  
2002-01-18 11:59:28 51°30.898 3°18.673 4.679858 3.002406 30.906436  
2002-01-18 12:00:28 51°30.955 3°18.906 4.664921 3.001205 30.895208  
2002-01-18 12:01:28 51°30.965 3°19.018 4.656865 2.998202 30.874025  
2002-01-18 12:02:28 51°30.954 3°19.086 4.655132 2.9962 30.856923  
2002-01-18 12:03:29 51°30.943 3°19.061 4.733762 2.993997 30.830249  
2002-01-18 12:04:28 51°30.929 3°19.036 4.649114 2.993797 30.836072  
2002-01-18 12:05:28 51°30.933 3°19.076 4.652072 2.994298 30.843388  
2002-01-18 12:06:28 51°30.971 3°19.083 4.661148 2.993297 30.830377  
2002-01-18 12:07:28 51°30.987 3°19.067 4.664156 2.991695 30.80406  
2002-01-18 12:08:28 51°30.991 3°19.049 4.653143 2.991194 30.799176  
2002-01-18 12:09:28 51°30.988 3°19.033 4.645034 2.990193 30.793453  
2002-01-18 12:10:28 51°30.98 3°19.021 4.640801 2.989593 30.794712  
2002-01-18 12:11:28 51°30.97 3°19.013 4.641923 2.989293 30.794533  
2002-01-18 12:12:28 51°30.958 3°19.008 4.641872 2.989393 30.797291  
2002-01-18 12:13:28 51°30.946 3°19.005 4.641923 2.989493 30.796811  
2002-01-18 12:14:28 51°30.933 3°19.003 4.641158 2.989293 30.791295  
2002-01-18 12:15:28 51°30.921 3°19.004 4.642637 2.989793 30.801038  
2002-01-18 12:16:28 51°30.909 3°19.006 4.646564 2.989793 30.793753  
2002-01-18 12:17:28 51°30.896 3°19.009 4.664156 2.989993 30.791175  
2002-01-18 12:18:28 51°30.884 3°19.013 4.669408 2.990994 30.797708  
2002-01-18 12:19:28 51°30.871 3°19.017 4.668439 2.991795 30.800343  
2002-01-18 12:20:28 51°30.859 3°19.022 4.675984 2.991995 30.800193  
2002-01-18 12:21:28 51°30.851 3°19.02 4.693465 2.990293 30.781651  
2002-01-18 12:22:28 51°30.88 3°18.996 4.650236 2.990594 30.798817  
2002-01-18 12:23:28 51°30.928 3°18.981 4.64483 2.990193 30.800737  
2002-01-18 12:24:28 51°30.96 3°19.006 4.642892 2.989693 30.79828  
2002-01-18 12:25:28 51°30.972 3°19.034 4.643708 2.989092 30.792254  
2002-01-18 12:26:28 51°30.974 3°19.057 4.651358 2.988992 30.787878  
2002-01-18 12:27:28 51°30.975 3°19.077 4.649063 2.989593 30.787429  
2002-01-18 12:28:28 51°30.976 3°19.093 4.645748 2.989192 30.788538  
2002-01-18 12:29:28 51°30.976 3°19.107 4.643708 2.989092 30.787399  
2002-01-18 12:30:28 51°30.973 3°19.117 4.683323 2.989192 30.789347  
2002-01-18 12:31:28 51°30.967 3°19.126 4.642178 2.988892 30.787548  
2002-01-18 12:32:28 51°30.959 3°19.136 4.641005 2.988792 30.788837  
2002-01-18 12:33:28 51°30.949 3°19.146 4.642892 2.988792 30.788028  
2002-01-18 12:34:28 51°30.937 3°19.158 4.650848 2.989292 30.790486  
2002-01-18 12:35:28 51°30.925 3°19.17 4.659313 2.989593 30.789047  
2002-01-18 12:36:28 51°30.913 3°19.183 4.741604 2.990594 30.789918  
2002-01-18 12:37:27 51°30.901 3°19.196 4.670886 2.990594 30.7883  
2002-01-18 12:38:28 51°30.889 3°19.209 4.680724 2.991995 30.789681  
2002-01-18 12:39:28 51°30.878 3°19.224 4.662882 2.992395 30.793425  
2002-01-18 12:40:28 51°30.866 3°19.239 4.651817 2.990894 30.794142  
2002-01-18 12:41:28 51°30.854 3°19.252 4.662423 2.990494 30.794442  
2002-01-18 12:42:28 51°30.842 3°19.267 4.653041 2.990894 30.798187  
2002-01-18 12:43:28 51°30.837 3°19.263 4.650848 2.990394 30.79573  
2002-01-18 12:44:28 51°30.814 3°19.12 4.659364 2.990293 30.79621  
2002-01-18 12:45:28 51°30.712 3°18.956 4.643147 2.990293 30.792973  
2002-01-18 12:46:28 51°30.588 3°18.725 4.648451 2.989393 30.789197  
2002-01-18 12:47:28 51°30.45 3°18.452 4.66329 2.991495 30.808257  
2002-01-18 12:48:28 51°30.312 3°18.17 4.680928 2.9964 30.847855  
2002-01-18 12:49:28 51°30.172 3°17.886 4.698969 3.001105 30.88596  
2002-01-18 12:50:28 51°30.038 3°17.594 4.746645 3.005409 30.919489  
2002-01-18 12:51:28 51°29.902 3°17.303 4.691172 3.00661 30.929087  
2002-01-18 12:52:28 51°29.765 3°17.011 4.68001 3.003707 30.90501  
2002-01-18 12:53:28 51°29.628 3°16.724 4.610906 2.997101 30.853394  
2002-01-18 12:54:28 51°29.49 3°16.433 4.515003 2.971675 30.641659  
2002-01-18 12:55:28 51°29.354 3°16.142 4.493944 2.948853 30.447651  
2002-01-18 12:56:28 51°29.217 3°15.851 4.493689 2.944048 30.405725  
2002-01-18 12:57:28 51°29.078 3°15.559 4.480293 2.941245 30.375376  
2002-01-18 12:58:28 51°28.94 3°15.264 4.464184 2.934139 30.311974  
2002-01-18 12:59:28 51°28.807 3°14.966 4.406668 2.92503 30.236087  
2002-01-18 13:00:28 51°28.68 3°14.663 4.37538 2.910517 30.107985  
2002-01-18 13:01:28 51°28.552 3°14.36 4.297939 2.897806 29.997084  
2002-01-18 13:02:28 51°28.425 3°14.058 4.266494 2.876389 29.816619  
2002-01-18 13:03:28 51°28.297 3°13.757 4.254743 2.871785 29.784562  
2002-01-18 13:04:28 51°28.169 3°13.456 4.232108 2.866581 29.74481  
2002-01-18 13:05:28 51°28.041 3°13.152 4.232364 2.863679 29.725836  
2002-01-18 13:06:28 51°27.911 3°12.85 4.245865 2.867882 29.766829  
2002-01-18 13:07:28 51°27.791 3°12.541 4.257258 2.871285 29.803405  
2002-01-18 13:08:28 51°27.669 3°12.233 4.284706 2.879391 29.876355  
2002-01-18 13:09:28 51°27.546 3°11.924 4.303323 2.886297 29.934709  
2002-01-18 13:10:28 51°27.423 3°11.614 4.321679 2.895005 30.016805  
2002-01-18 13:11:28 51°27.298 3°11.304 4.322191 2.899008 30.050636  
2002-01-18 13:12:28 51°27.175 3°10.993 4.334903 2.90171 30.077552  
2002-01-18 13:13:28 51°27.05 3°10.683 4.337927 2.905113 30.108484  
2002-01-18 13:14:28 51°26.926 3°10.372 4.34833 2.907115 30.12658  
2002-01-18 13:15:28 51°26.802 3°10.06 4.362523 2.913721 30.194922  
2002-01-18 13:16:28 51°26.678 3°9.75 4.376712 2.916323 30.211062  
2002-01-18 13:17:28 51°26.555 3°9.439 4.381475 2.922429 30.269638  
2002-01-18 13:18:28 51°26.432 3°9.131 4.386084 2.924931 30.297442  
2002-01-18 13:19:28 51°26.308 3°8.82 4.396121 2.928234 30.325563  
2002-01-18 13:20:28 51°26.184 3°8.509 4.376814 2.929235 30.334594  
2002-01-18 13:21:28 51°26.063 3°8.198 4.358014 2.924631 30.303647  
2002-01-18 13:22:28 51°25.939 3°7.888 4.386545 2.92363 30.303448  
2002-01-18 13:23:28 51°25.741 3°7.708 4.363086 2.918626 30.262256  
2002-01-18 13:24:28 51°25.519 3°7.58 4.294093 2.914022 30.230433  
2002-01-18 13:25:28 51°25.297 3°7.452 4.269368 2.908116 30.185282  
2002-01-18 13:26:28 51°25.074 3°7.334 4.249663 2.901911 30.135842  
2002-01-18 13:27:28 51°24.848 3°7.217 4.232108 2.896406 30.089579  
2002-01-18 13:28:28 51°24.624 3°7.106 4.202428 2.891202 30.047526  
2002-01-18 13:29:28 51°24.403 3°6.992 4.161068 2.880593 29.958627  
2002-01-18 13:30:28 51°24.182 3°6.881 4.133102 2.868283 29.849275  
2002-01-18 13:31:28 51°23.964 3°6.774 4.086344 2.855773 29.731126  
2002-01-18 13:32:28 51°23.75 3°6.673 4.065964 2.831154 29.488836  
2002-01-18 13:33:28 51°23.535 3°6.575 4.065964 2.82485 29.430628  
2002-01-18 13:34:28 51°23.319 3°6.474 4.057058 2.820347 29.379703  
2002-01-18 13:35:28 51°23.104 3°6.373 4.055668 2.814643 29.322852  
2002-01-18 13:36:28 51°22.889 3°6.274 4.08583 2.810039 29.273137  
2002-01-18 13:37:28 51°22.676 3°6.168 4.083051 2.805536 29.228488  
2002-01-18 13:38:28 51°22.465 3°6.064 4.078214 2.801733 29.181708  
2002-01-18 13:39:28 51°22.265 3°5.929 4.207358 2.794028 29.066823  
2002-01-18 13:40:27 51°22.113 3°5.697 4.096892 2.790325 29.021281  
2002-01-18 13:41:28 51°21.964 3°5.442 4.101214 2.788124 28.98365  
2002-01-18 13:42:28 51°21.825 3°5.182 4.099105 2.787023 28.970269  
2002-01-18 13:43:28 51°21.696 3°4.909 4.088866 2.785422 28.953482  
2002-01-18 13:44:28 51°21.564 3°4.638 4.073942 2.785322 28.963954  
2002-01-18 13:45:28 51°21.432 3°4.366 4.059478 2.786923 28.993155  
2002-01-18 13:46:28 51°21.315 3°4.08 4.053454 2.789925 29.035335  
2002-01-18 13:47:28 51°21.22 3°3.778 4.036977 2.792727 29.079921  
2002-01-18 13:48:28 51°21.129 3°3.476 4.030231 2.791226 29.07438  
2002-01-18 13:49:28 51°21.045 3°3.17 4.037441 2.790326 29.067159  
2002-01-18 13:50:28 51°20.959 3°2.864 4.052785 2.790726 29.063966  
2002-01-18 13:51:28 51°20.874 3°2.562 4.072038 2.782821 28.958536  
2002-01-18 13:52:27 51°20.792 3°2.266 4.079758 2.776717 28.876973  
2002-01-18 13:53:28 51°20.707 3°1.961 4.073685 2.772114 28.820391  
2002-01-18 13:54:28 51°20.624 3°1.662 4.074817 2.768611 28.784908  
2002-01-18 13:55:28 51°20.549 3°1.359 4.072964 2.767511 28.768454  
2002-01-18 13:56:28 51°20.473 3°1.055 4.065604 2.76711 28.76849  
2002-01-18 13:57:28 51°20.397 3°0.752 4.03672 2.76611 28.761651  
2002-01-18 13:58:28 51°20.32 3°0.449 4.029561 2.761207 28.733194  
2002-01-18 13:59:28 51°20.244 3°0.145 4.037286 2.761607 28.727005  
2002-01-18 14:00:28 51°20.169 2°59.839 4.063133 2.760106 28.719041  
2002-01-18 14:01:28 51°20.093 2°59.532 4.078986 2.761407 28.701651  
2002-01-18 14:02:28 51°20.019 2°59.224 4.06931 2.761807 28.701625  
2002-01-18 14:03:28 51°19.944 2°58.915 4.069104 2.762207 28.712352  
2002-01-18 14:04:28 51°19.869 2°58.606 4.067199 2.761407 28.707797  
2002-01-18 14:05:28 51°19.796 2°58.298 4.047894 2.760607 28.702473  
2002-01-18 14:06:28 51°19.722 2°57.991 4.054896 2.758505 28.688397  
2002-01-18 14:07:28 51°19.649 2°57.683 4.070957 2.757405 28.668881  
2002-01-18 14:08:28 51°19.572 2°57.377 4.059735 2.757905 28.670004  
2002-01-18 14:09:28 51°19.49 2°57.076 4.059117 2.758505 28.68302  
2002-01-18 14:10:28 51°19.409 2°56.775 4.066582 2.760006 28.697135  
2002-01-18 14:11:28 51°19.329 2°56.472 4.061846 2.763308 28.731104  
2002-01-18 14:12:28 51°19.248 2°56.17 4.043826 2.769212 28.804118  
2002-01-18 14:13:28 51°19.165 2°55.868 4.081507 2.777918 28.919365  
2002-01-18 14:14:28 51°19.083 2°55.566 4.029149 2.784522 28.998225  
2002-01-18 14:15:28 51°19.002 2°55.262 4.036926 2.787424 29.038524  
2002-01-18 14:16:28 51°18.924 2°54.958 4.047894 2.789725 29.05404  
2002-01-18 14:17:28 51°18.846 2°54.656 4.048821 2.793528 29.09378  
2002-01-18 14:18:28 51°18.769 2°54.353 4.048924 2.795629 29.114776  
2002-01-18 14:19:28 51°18.691 2°54.051 4.041766 2.798131 29.145828  
2002-01-18 14:20:28 51°18.614 2°53.749 4.045268 2.800533 29.176521  
2002-01-18 14:21:28 51°18.537 2°53.445 4.066273 2.799332 29.155706  
2002-01-18 14:22:28 51°18.461 2°53.143 4.112582 2.799832 29.15208  
2002-01-18 14:23:28 51°18.385 2°52.84 4.082794 2.804535 29.195105  
2002-01-18 14:24:28 51°18.309 2°52.537 4.098899 2.809639 29.241921  
2002-01-18 14:25:28 51°18.182 2°52.3 4.10214 2.816544 29.31486  
2002-01-18 14:26:28 51°17.98 2°52.263 4.088145 2.82465 29.407078  
2002-01-18 14:27:28 51°17.769 2°52.319 4.039449 2.828353 29.466912  
2002-01-18 14:28:28 51°17.558 2°52.371 3.993961 2.827252 29.487415  
2002-01-18 14:29:28 51°17.351 2°52.477 4.023071 2.82395 29.480257  
2002-01-18 14:30:28 51°17.151 2°52.628 4.007153 2.826852 29.493086  
2002-01-18 14:31:28 51°16.953 2°52.796 4.001227 2.828453 29.524164  
2002-01-18 14:32:28 51°16.755 2°52.968 4.016993 2.829554 29.545546  
2002-01-18 14:33:28 51°16.559 2°53.148 4.034969 2.834057 29.572798  
2002-01-18 14:34:28 51°16.368 2°53.329 3.998651 2.828253 29.512364  
2002-01-18 14:35:28 51°16.176 2°53.51 3.991848 2.820848 29.457994  
2002-01-18 14:36:28 51°15.982 2°53.682 3.963755 2.828553 29.545916  
2002-01-18 14:37:28 51°15.788 2°53.856 4.014777 2.834058 29.63157  
2002-01-18 14:38:28 51°15.595 2°54.028 3.994528 2.856575 29.837574  
2002-01-18 14:39:28 51°15.398 2°54.179 3.952205 2.849369 29.780136  
2002-01-18 14:40:28 51°15.201 2°54.322 3.966488 2.839962 29.714005  
2002-01-18 14:41:28 51°15.005 2°54.48 3.946738 2.840463 29.686273  
2002-01-18 14:42:28 51°14.814 2°54.648 3.911762 2.830455 29.606746  
2002-01-18 14:43:28 51°14.634 2°54.809 3.885027 2.820248 29.516836  
2002-01-18 14:44:28 51°14.454 2°54.97 3.850326 2.824251 29.587694  
2002-01-18 14:45:28 51°14.306 2°55.172 3.937558 2.824151 29.60966  
2002-01-18 14:46:27 51°14.205 2°55.343 3.946996 2.498221 25.811674  
2002-01-18 14:47:27 51°14.1 2°55.434 3.968653 2.39873 24.672356  
2002-01-18 14:48:27 51°14.014 2°55.494 4.001279 2.350843 24.126594  
2002-01-18 14:49:28 51°13.886 2°55.585 3.978808 2.222406 22.650278  
2002-01-18 14:50:27 51°13.782 2°55.676 4.151559 2.28557 23.384502  
2002-01-18 14:51:28 51°13.733 2°55.758 4.100031 1.814324 18.100392  
2002-01-18 14:52:27 51°13.706 2°55.821 4.125851 1.961578 19.700427  
2002-01-18 14:53:27 51°13.691 2°55.883 4.142974 2.185532 22.168916  
2002-01-18 14:54:28 51°13.686 2°55.91 3.971076 2.256085 22.973172  
2002-01-18 14:55:28 51°13.686 2°55.903 3.947099 2.475821 25.543374  
2002-01-18 14:56:28 51°13.689 2°55.899 4.792047 2.407028 24.761293  
2002-01-18 14:57:29 51°13.688 2°55.905 4.774135 2.492021 25.762135  
2002-01-18 14:58:28 51°13.687 2°55.903 4.654928 2.474121 25.548826